Time;durP1;ratioP1;P1;durP2;ratioP2;P2;SDS_P1;SDS_P2;PMS_P1;PMS_P2;Temp;Humidity;BMP_temperature;BMP_pressure;BME280_temperature;BME280_humidity;BME280_pressure;Samples;Min_cycle;Max_cycle;Signal;HPM_P1;HPM_P2
2023/12/09 00:01:06;;;;;;;2.87;2.77;;;16.50;65.40;;;;;;5069571;28;43511;-78
2023/12/09 00:03:37;;;;;;;3.10;3.00;;;16.50;65.30;;;;;;5061624;28;43431;-77
2023/12/09 00:06:06;;;;;;;2.97;2.87;;;16.50;65.30;;;;;;5069730;28;43581;-77
2023/12/09 00:08:35;;;;;;;3.20;3.10;;;16.50;65.40;;;;;;5069358;28;44055;-75
2023/12/09 00:11:04;;;;;;;3.10;3.00;;;16.40;65.60;;;;;;5068968;28;43976;-76
2023/12/09 00:13:32;;;;;;;3.00;2.90;;;16.40;65.50;;;;;;5068481;28;43309;-75
2023/12/09 00:16:01;;;;;;;3.20;3.10;;;16.40;65.60;;;;;;5062933;28;43613;-76
2023/12/09 00:18:29;;;;;;;2.63;2.60;;;16.40;65.60;;;;;;5069358;28;43628;-74
2023/12/09 00:20:57;;;;;;;2.70;2.60;;;16.40;65.70;;;;;;5064194;28;44797;-74
2023/12/09 00:23:25;;;;;;;2.90;2.80;;;16.40;65.80;;;;;;5060777;28;43420;-75
2023/12/09 00:25:55;;;;;;;2.70;2.60;;;16.40;65.90;;;;;;5069836;28;43496;-74
2023/12/09 00:28:23;;;;;;;2.90;2.80;;;16.30;65.90;;;;;;5069213;28;43791;-76
2023/12/09 00:30:51;;;;;;;2.80;2.70;;;16.30;66.60;;;;;;5067338;28;43427;-74
2023/12/09 00:33:19;;;;;;;2.90;2.80;;;16.30;65.80;;;;;;5062701;28;43538;-74
2023/12/09 00:35:47;;;;;;;2.60;2.50;;;16.30;65.90;;;;;;5062928;28;43384;-74
2023/12/09 00:38:15;;;;;;;2.63;2.63;;;16.30;66.00;;;;;;5057123;28;45687;-75
2023/12/09 00:40:43;;;;;;;2.37;2.37;;;16.30;66.00;;;;;;5064599;28;43544;-74
2023/12/09 00:43:12;;;;;;;2.47;2.40;;;16.30;66.10;;;;;;5064796;28;43434;-75
2023/12/09 00:45:40;;;;;;;2.70;2.60;;;16.30;66.10;;;;;;5062647;28;43979;-73
2023/12/09 00:48:09;;;;;;;2.77;2.67;;;16.40;66.00;;;;;;5046692;28;45646;-77
2023/12/09 00:50:37;;;;;;;2.83;2.73;;;16.50;65.70;;;;;;5067902;28;43386;-74
2023/12/09 00:53:05;;;;;;;2.70;2.60;;;16.50;65.60;;;;;;5064486;28;43413;-76
2023/12/09 00:55:33;;;;;;;2.70;2.60;;;16.50;65.60;;;;;;5068739;28;43403;-74
2023/12/09 00:58:01;;;;;;;2.40;2.30;;;16.50;65.80;;;;;;5061063;28;45339;-74
2023/12/09 01:00:31;;;;;;;2.63;2.53;;;16.40;65.80;;;;;;5068528;28;43444;-75
2023/12/09 01:02:59;;;;;;;2.23;2.23;;;16.40;65.80;;;;;;5068635;28;43406;-75
2023/12/09 01:05:27;;;;;;;2.73;2.73;;;16.40;65.80;;;;;;5060204;28;43936;-75
2023/12/09 01:07:55;;;;;;;2.13;2.13;;;16.40;65.80;;;;;;5067677;28;43611;-75
2023/12/09 01:10:23;;;;;;;2.37;2.30;;;16.40;65.90;;;;;;5058035;28;44690;-74
2023/12/09 01:12:51;;;;;;;2.43;2.43;;;16.40;66.00;;;;;;5061210;28;43454;-73
2023/12/09 01:15:19;;;;;;;2.77;2.67;;;16.30;66.00;;;;;;5063514;28;43499;-75
2023/12/09 01:17:49;;;;;;;2.57;2.50;;;16.30;66.10;;;;;;5068007;28;44079;-74
2023/12/09 01:20:18;;;;;;;2.40;2.40;;;16.30;66.00;;;;;;5067894;28;43522;-75
2023/12/09 01:22:46;;;;;;;2.27;2.17;;;16.40;66.10;;;;;;5067975;28;43499;-74
2023/12/09 01:25:14;;;;;;;2.50;2.40;;;16.40;66.00;;;;;;5078479;28;43390;-75
2023/12/09 01:27:42;;;;;;;2.60;2.50;;;16.40;66.00;;;;;;5083179;28;46029;-74
2023/12/09 01:30:10;;;;;;;2.70;2.60;;;16.30;66.00;;;;;;5085857;28;43359;-71
2023/12/09 01:32:38;;;;;;;2.47;2.40;;;16.30;66.00;;;;;;5085965;28;43405;-71
2023/12/09 01:35:10;;;;;;;2.40;2.40;;;16.30;66.20;;;;;;5084392;28;43400;-74
2023/12/09 01:37:38;;;;;;;2.40;2.30;;;16.30;66.20;;;;;;5081727;28;43834;-74
2023/12/09 01:40:07;;;;;;;2.20;2.10;;;16.40;65.90;;;;;;5073009;28;45450;-75
2023/12/09 01:42:34;;;;;;;2.37;2.37;;;16.50;65.60;;;;;;5080719;28;43376;-74
2023/12/09 01:45:04;;;;;;;2.57;2.47;;;16.60;65.30;;;;;;5073438;28;43439;-74
2023/12/09 01:47:32;;;;;;;2.60;2.50;;;16.60;65.20;;;;;;5086426;28;43711;-75
2023/12/09 01:50:00;;;;;;;2.70;2.50;;;16.60;65.30;;;;;;5086695;28;43395;-74
2023/12/09 01:52:29;;;;;;;4.40;2.10;;;16.50;65.50;;;;;;5088733;28;43313;-73
2023/12/09 01:54:57;;;;;;;2.10;2.10;;;16.50;65.30;;;;;;5079568;28;43445;-73
2023/12/09 01:57:26;;;;;;;2.00;2.00;;;16.50;65.40;;;;;;5086460;28;43595;-74
2023/12/09 01:59:54;;;;;;;2.37;2.37;;;16.50;65.50;;;;;;5086430;28;44782;-73
2023/12/09 02:02:22;;;;;;;2.23;2.23;;;16.50;65.60;;;;;;5086612;28;43382;-73
2023/12/09 02:04:50;;;;;;;2.60;2.20;;;16.40;65.70;;;;;;5086353;28;43440;-74
2023/12/09 02:07:18;;;;;;;1.90;1.90;;;16.40;65.80;;;;;;5085541;28;43943;-74
2023/12/09 02:09:48;;;;;;;2.00;2.00;;;16.40;65.90;;;;;;5063353;28;44721;-74
2023/12/09 02:12:18;;;;;;;2.13;2.03;;;16.40;65.80;;;;;;5086292;28;43378;-74
2023/12/09 02:14:49;;;;;;;2.20;2.20;;;16.40;65.90;;;;;;5086484;28;43987;-72
2023/12/09 02:17:20;;;;;;;2.30;2.20;;;16.40;65.90;;;;;;5084855;28;43895;-72
2023/12/09 02:19:48;;;;;;;2.13;2.13;;;16.40;66.00;;;;;;5075057;28;45030;-72
2023/12/09 02:22:16;;;;;;;2.20;2.10;;;16.30;66.20;;;;;;5085327;28;43426;-74
2023/12/09 02:24:45;;;;;;;2.00;2.00;;;16.30;66.10;;;;;;5074440;28;43423;-75
2023/12/09 02:27:14;;;;;;;2.20;2.10;;;16.40;66.20;;;;;;5065106;28;44155;-75
2023/12/09 02:29:51;;;;;;;2.07;2.07;;;16.40;66.00;;;;;;5067472;28;43490;-73
2023/12/09 02:32:21;;;;;;;2.20;2.10;;;16.50;65.60;;;;;;5050891;28;43522;-75
2023/12/09 02:34:49;;;;;;;2.43;2.33;;;16.50;65.50;;;;;;5072918;28;43534;-74
2023/12/09 02:37:17;;;;;;;2.30;2.20;;;16.50;65.50;;;;;;5086037;28;43611;-73
2023/12/09 02:39:47;;;;;;;2.57;2.37;;;16.50;65.60;;;;;;5079685;28;43428;-73
2023/12/09 02:42:15;;;;;;;2.33;2.27;;;16.50;65.80;;;;;;5089264;28;43385;-74
2023/12/09 02:44:43;;;;;;;1.87;1.87;;;16.50;65.80;;;;;;5081101;28;43400;-74
2023/12/09 02:47:14;;;;;;;1.93;1.90;;;16.50;65.80;;;;;;5078847;28;45697;-73
2023/12/09 02:49:44;;;;;;;1.93;1.90;;;16.40;65.70;;;;;;5075717;28;44369;-74
2023/12/09 02:52:15;;;;;;;2.03;2.03;;;16.40;65.80;;;;;;5089293;28;43385;-75
2023/12/09 02:54:43;;;;;;;2.33;2.13;;;16.40;65.90;;;;;;5083469;28;43385;-73
2023/12/09 02:57:13;;;;;;;1.97;1.87;;;16.40;66.00;;;;;;5078614;28;44604;-73
2023/12/09 02:59:41;;;;;;;1.97;1.97;;;16.40;66.10;;;;;;5089307;28;43391;-74
2023/12/09 03:02:09;;;;;;;2.07;2.07;;;16.40;66.00;;;;;;5082933;28;43373;-75
2023/12/09 03:04:37;;;;;;;2.00;2.00;;;16.40;66.00;;;;;;5088204;28;43439;-75
2023/12/09 03:07:05;;;;;;;1.90;1.90;;;16.40;66.00;;;;;;5088987;28;44009;-74
2023/12/09 03:09:33;;;;;;;1.97;1.97;;;16.40;66.00;;;;;;5088755;28;43372;-75
2023/12/09 03:12:01;;;;;;;1.70;1.70;;;16.40;66.10;;;;;;5082350;28;43408;-75
2023/12/09 03:14:31;;;;;;;2.10;2.00;;;16.30;66.10;;;;;;5081935;28;43454;-75
2023/12/09 03:16:59;;;;;;;1.80;1.80;;;16.30;66.20;;;;;;5088995;28;43855;-74
2023/12/09 03:19:30;;;;;;;1.90;1.90;;;16.40;66.10;;;;;;5088425;28;43962;-74
2023/12/09 03:21:58;;;;;;;1.90;1.90;;;16.50;65.80;;;;;;5088200;28;43359;-73
2023/12/09 03:24:26;;;;;;;1.73;1.73;;;16.60;65.50;;;;;;5088335;28;43467;-74
2023/12/09 03:26:55;;;;;;;1.63;1.63;;;16.60;66.10;;;;;;5087355;28;43587;-72
2023/12/09 03:29:23;;;;;;;1.80;1.80;;;16.60;65.50;;;;;;5088027;28;43376;-74
2023/12/09 03:31:52;;;;;;;1.90;1.90;;;16.50;65.50;;;;;;5090561;28;43394;-75
2023/12/09 03:34:20;;;;;;;1.80;1.70;;;16.50;65.80;;;;;;5069658;28;43436;-77
2023/12/09 03:36:48;;;;;;;1.70;1.70;;;16.50;65.60;;;;;;5046983;28;45372;-78
2023/12/09 03:39:16;;;;;;;1.63;1.57;;;16.50;65.70;;;;;;5049819;28;43324;-77
2023/12/09 03:41:44;;;;;;;1.70;1.70;;;16.40;65.70;;;;;;5048316;28;43935;-79
2023/12/09 03:44:12;;;;;;;1.80;1.80;;;16.40;65.80;;;;;;5050357;28;43519;-74
2023/12/09 03:46:40;;;;;;;1.90;1.80;;;16.40;65.90;;;;;;5065077;28;43611;-74
2023/12/09 03:49:10;;;;;;;1.80;1.80;;;16.40;66.00;;;;;;5067079;28;43439;-75
2023/12/09 03:51:38;;;;;;;1.40;1.40;;;16.40;66.10;;;;;;5069584;28;43472;-75
2023/12/09 03:54:06;;;;;;;1.77;1.67;;;16.40;66.00;;;;;;5069271;28;43862;-75
2023/12/09 03:56:34;;;;;;;1.57;1.57;;;16.40;66.00;;;;;;5068410;28;43560;-76
2023/12/09 03:59:02;;;;;;;1.67;1.67;;;16.40;66.10;;;;;;5066602;28;45086;-73
2023/12/09 04:01:30;;;;;;;1.67;1.67;;;16.30;66.10;;;;;;5068302;28;43466;-73
2023/12/09 04:03:58;;;;;;;2.10;2.00;;;16.30;66.10;;;;;;5068965;28;43409;-75
2023/12/09 04:06:28;;;;;;;1.70;1.70;;;16.30;66.20;;;;;;5067770;28;43857;-73
2023/12/09 04:08:56;;;;;;;1.70;1.60;;;16.30;66.30;;;;;;5068214;28;43396;-72
2023/12/09 04:11:24;;;;;;;1.43;1.43;;;16.40;66.10;;;;;;5066624;28;43427;-73
2023/12/09 04:13:52;;;;;;;1.53;1.53;;;16.50;65.80;;;;;;5068896;28;43398;-75
2023/12/09 04:16:20;;;;;;;1.70;1.60;;;16.50;65.50;;;;;;5062716;28;44053;-75
2023/12/09 04:18:48;;;;;;;1.47;1.47;;;16.60;65.60;;;;;;5061157;28;45049;-72
2023/12/09 04:21:17;;;;;;;2.20;2.00;;;16.50;65.60;;;;;;5064691;28;43534;-72
2023/12/09 04:23:47;;;;;;;2.23;2.13;;;16.50;65.70;;;;;;5058768;28;43463;-72
2023/12/09 04:26:15;;;;;;;2.60;2.40;;;16.50;65.70;;;;;;5067141;28;43931;-74
2023/12/09 04:28:43;;;;;;;2.20;2.10;;;16.50;66.40;;;;;;5063316;28;43486;-74
2023/12/09 04:31:11;;;;;;;2.20;2.10;;;16.50;65.70;;;;;;5065210;28;43456;-74
2023/12/09 04:33:40;;;;;;;2.10;2.00;;;16.50;65.80;;;;;;5068851;28;43391;-73
2023/12/09 04:36:09;;;;;;;4.57;2.73;;;16.50;65.90;;;;;;5075013;28;45995;-73
2023/12/09 04:38:37;;;;;;;4.97;3.43;;;16.50;66.00;;;;;;5083714;28;45105;-75
2023/12/09 04:41:07;;;;;;;6.33;3.93;;;16.40;66.00;;;;;;5074598;28;43462;-74
2023/12/09 04:43:35;;;;;;;3.80;3.00;;;16.40;65.90;;;;;;5069959;28;43416;-73
2023/12/09 04:46:04;;;;;;;4.13;2.67;;;16.40;65.90;;;;;;5061555;28;43601;-74
2023/12/09 04:48:32;;;;;;;3.20;3.00;;;16.40;65.90;;;;;;5059605;28;44755;-75
2023/12/09 04:51:00;;;;;;;3.83;3.17;;;16.40;66.00;;;;;;5060285;28;43372;-75
2023/12/09 04:53:30;;;;;;;4.97;3.53;;;16.40;66.10;;;;;;5063949;28;44060;-75
2023/12/09 04:55:58;;;;;;;5.37;3.33;;;16.40;66.10;;;;;;5061109;28;43607;-76
2023/12/09 04:58:28;;;;;;;4.50;3.80;;;16.40;66.20;;;;;;5058880;28;45171;-75
2023/12/09 05:00:56;;;;;;;4.93;3.67;;;16.50;66.10;;;;;;5064531;28;43389;-74
2023/12/09 05:03:24;;;;;;;7.27;3.97;;;16.50;65.70;;;;;;5063891;28;43382;-73
2023/12/09 05:05:53;;;;;;;5.83;3.60;;;16.60;65.60;;;;;;5052816;28;44588;-75
2023/12/09 05:08:21;;;;;;;3.87;3.40;;;16.60;65.70;;;;;;5057355;28;43458;-74
2023/12/09 05:10:49;;;;;;;4.63;3.60;;;16.60;65.70;;;;;;5062834;28;43383;-75
2023/12/09 05:13:17;;;;;;;5.77;3.70;;;16.50;65.70;;;;;;5062998;28;43835;-75
2023/12/09 05:15:47;;;;;;;7.63;3.90;;;16.50;65.80;;;;;;5063641;28;44006;-74
2023/12/09 05:18:16;;;;;;;4.23;3.47;;;16.50;65.80;;;;;;5058897;28;43424;-73
2023/12/09 05:20:45;;;;;;;3.90;3.50;;;16.50;65.80;;;;;;5051985;28;43455;-74
2023/12/09 05:23:13;;;;;;;5.40;3.60;;;16.50;65.90;;;;;;5057396;28;43378;-74
2023/12/09 05:25:41;;;;;;;4.27;3.00;;;16.50;65.90;;;;;;5062091;28;43599;-75
2023/12/09 05:28:09;;;;;;;4.27;3.77;;;16.50;66.00;;;;;;5063976;28;43403;-75
2023/12/09 05:30:37;;;;;;;6.57;3.97;;;16.50;66.10;;;;;;5061040;28;43554;-75
2023/12/09 05:33:07;;;;;;;6.20;3.80;;;16.50;66.20;;;;;;5067161;28;43439;-75
2023/12/09 05:35:36;;;;;;;6.47;4.03;;;16.50;66.00;;;;;;5060282;28;43643;-75
2023/12/09 05:38:04;;;;;;;5.03;4.00;;;16.50;65.70;;;;;;5061788;28;43819;-75
2023/12/09 05:40:34;;;;;;;4.17;3.60;;;16.50;65.70;;;;;;5059892;28;43490;-75
2023/12/09 05:43:03;;;;;;;4.07;3.20;;;16.50;65.70;;;;;;5061388;28;43546;-76
2023/12/09 05:45:31;;;;;;;6.03;3.80;;;16.50;65.80;;;;;;5066018;28;43881;-75
2023/12/09 05:47:59;;;;;;;5.50;4.10;;;16.50;65.90;;;;;;5058740;28;43470;-76
2023/12/09 05:50:28;;;;;;;5.67;3.93;;;16.50;65.90;;;;;;5051896;28;43860;-75
2023/12/09 05:52:56;;;;;;;4.57;3.57;;;16.50;65.90;;;;;;5055147;28;43841;-74
2023/12/09 05:55:29;;;;;;;4.00;3.57;;;16.50;65.90;;;;;;5069956;28;44024;-73
2023/12/09 05:57:57;;;;;;;4.60;3.30;;;16.50;66.00;;;;;;5077141;28;44716;-74
2023/12/09 06:00:25;;;;;;;3.93;3.63;;;16.50;66.00;;;;;;5072264;28;43355;-73
2023/12/09 06:02:53;;;;;;;4.27;3.87;;;16.50;65.90;;;;;;5081141;28;43409;-72
2023/12/09 06:05:21;;;;;;;5.23;3.83;;;16.40;66.10;;;;;;5079169;28;45707;-75
2023/12/09 06:07:51;;;;;;;4.23;3.83;;;16.50;66.20;;;;;;5070009;28;44838;-74
2023/12/09 06:10:19;;;;;;;3.83;3.57;;;16.50;65.90;;;;;;5071485;28;43463;-73
2023/12/09 06:12:47;;;;;;;4.30;3.90;;;16.60;65.70;;;;;;5075844;28;43422;-72
2023/12/09 06:15:15;;;;;;;4.17;3.77;;;16.60;65.70;;;;;;5084880;28;43755;-73
2023/12/09 06:17:43;;;;;;;3.77;3.47;;;16.60;65.70;;;;;;5081040;28;45014;-71
2023/12/09 06:20:12;;;;;;;4.33;3.40;;;16.60;65.80;;;;;;5079088;28;43472;-72
2023/12/09 06:22:40;;;;;;;3.97;3.70;;;16.60;65.90;;;;;;5080134;28;43854;-72
2023/12/09 06:25:10;;;;;;;4.17;3.87;;;16.50;65.90;;;;;;5081288;28;43603;-73
2023/12/09 06:27:38;;;;;;;3.87;3.50;;;16.50;66.00;;;;;;5081740;28;43379;-75
2023/12/09 06:30:09;;;;;;;4.67;3.60;;;16.50;66.00;;;;;;5078154;28;43517;-74
2023/12/09 06:32:38;;;;;;;4.50;3.73;;;16.50;66.10;;;;;;5082772;28;43425;-72
2023/12/09 06:35:07;;;;;;;4.23;3.67;;;16.50;66.10;;;;;;5058329;28;44739;-74
2023/12/09 06:37:34;;;;;;;3.90;3.60;;;16.50;66.20;;;;;;5047647;28;43957;-72
2023/12/09 06:40:02;;;;;;;6.40;4.10;;;16.60;66.10;;;;;;5046580;28;43434;-73
2023/12/09 06:42:32;;;;;;;4.47;4.07;;;16.60;65.60;;;;;;5049477;28;43399;-75
2023/12/09 06:45:00;;;;;;;4.30;3.87;;;16.80;65.30;;;;;;5048657;28;43572;-75
2023/12/09 06:47:30;;;;;;;3.93;3.60;;;17.00;65.00;;;;;;5048488;28;43337;-73
2023/12/09 06:49:58;;;;;;;4.50;3.77;;;17.10;64.40;;;;;;5048441;28;43472;-75
2023/12/09 06:52:26;;;;;;;5.03;3.73;;;17.20;63.90;;;;;;5048096;28;44010;-75
2023/12/09 06:54:55;;;;;;;4.40;3.90;;;17.40;63.70;;;;;;5048500;28;43679;-74
2023/12/09 06:57:23;;;;;;;3.83;3.50;;;17.50;63.30;;;;;;5048077;28;43405;-74
2023/12/09 06:59:53;;;;;;;3.60;3.40;;;17.60;63.10;;;;;;5048976;28;43460;-73
2023/12/09 07:02:21;;;;;;;3.40;3.20;;;17.60;62.80;;;;;;5046487;28;43409;-74
2023/12/09 07:04:49;;;;;;;3.90;3.60;;;17.70;62.60;;;;;;5039255;28;44203;-74
2023/12/09 07:07:17;;;;;;;4.73;3.70;;;17.70;62.60;;;;;;5028719;28;44705;-74
2023/12/09 07:09:49;;;;;;;4.07;3.33;;;17.60;62.60;;;;;;5028467;28;43940;-75
2023/12/09 07:12:17;;;;;;;3.40;3.20;;;17.50;62.90;;;;;;5028382;28;43598;-71
2023/12/09 07:14:45;;;;;;;3.60;3.30;;;17.30;63.30;;;;;;5028056;28;44996;-74
2023/12/09 07:17:14;;;;;;;3.80;3.50;;;17.20;63.90;;;;;;5029848;28;43423;-75
2023/12/09 07:19:43;;;;;;;3.60;3.33;;;17.10;64.30;;;;;;5026684;28;43373;-74
2023/12/09 07:22:11;;;;;;;3.33;3.13;;;17.00;64.20;;;;;;5029946;28;43427;-75
2023/12/09 07:24:39;;;;;;;3.40;3.10;;;17.00;65.20;;;;;;5028043;28;45295;-75
2023/12/09 07:27:09;;;;;;;3.63;3.33;;;16.90;64.70;;;;;;5029050;28;43542;-74
2023/12/09 07:29:37;;;;;;;3.80;3.50;;;16.80;64.90;;;;;;5029956;28;43408;-74
2023/12/09 07:32:05;;;;;;;3.90;3.60;;;16.80;65.00;;;;;;5029843;28;43356;-73
2023/12/09 07:34:35;;;;;;;3.30;3.00;;;16.70;65.30;;;;;;5046246;28;43655;-74
2023/12/09 07:37:05;;;;;;;3.53;3.30;;;16.70;65.20;;;;;;5069790;28;44005;-75
2023/12/09 07:39:33;;;;;;;3.20;3.00;;;16.70;65.30;;;;;;5070071;28;43391;-74
2023/12/09 07:42:01;;;;;;;3.83;3.57;;;16.60;65.30;;;;;;5070160;28;43439;-74
2023/12/09 07:44:29;;;;;;;3.40;3.10;;;16.70;65.50;;;;;;5069418;28;43946;-75
2023/12/09 07:46:57;;;;;;;3.17;3.00;;;16.60;65.50;;;;;;5069766;28;43366;-75
2023/12/09 07:49:25;;;;;;;3.60;3.30;;;16.60;65.80;;;;;;5069556;28;43456;-76
2023/12/09 07:51:55;;;;;;;3.20;2.87;;;16.60;65.90;;;;;;5059948;28;44247;-74
2023/12/09 07:54:23;;;;;;;3.77;3.47;;;16.70;65.60;;;;;;5068936;28;43600;-76
2023/12/09 07:56:58;;;;;;;3.23;3.03;;;16.80;65.30;;;;;;5061452;28;44463;-73
2023/12/09 07:59:26;;;;;;;3.27;3.07;;;16.80;65.00;;;;;;5069457;28;43431;-74
2023/12/09 08:01:54;;;;;;;3.87;3.40;;;16.80;65.00;;;;;;5070056;28;43393;-74
2023/12/09 08:04:22;;;;;;;4.03;3.63;;;16.70;65.20;;;;;;5069478;28;43940;-75
2023/12/09 08:06:52;;;;;;;2.90;2.80;;;16.70;65.40;;;;;;5063623;28;44737;-74
2023/12/09 08:09:21;;;;;;;3.10;2.80;;;16.70;65.30;;;;;;5068488;28;43479;-73
2023/12/09 08:11:50;;;;;;;2.77;2.57;;;16.70;65.40;;;;;;5063168;28;43331;-74
2023/12/09 08:14:20;;;;;;;3.00;2.80;;;16.60;65.40;;;;;;5063823;28;44091;-75
2023/12/09 08:16:48;;;;;;;3.30;3.07;;;16.60;65.60;;;;;;5069725;28;43675;-75
2023/12/09 08:19:17;;;;;;;3.50;3.20;;;16.60;65.70;;;;;;5065402;28;43459;-72
2023/12/09 08:21:45;;;;;;;3.57;3.37;;;16.60;65.90;;;;;;5060287;28;43438;-75
2023/12/09 08:24:13;;;;;;;3.27;2.97;;;16.60;65.80;;;;;;5070266;28;43858;-74
2023/12/09 08:26:42;;;;;;;2.60;2.50;;;16.60;65.80;;;;;;5084209;28;43350;-72
2023/12/09 08:29:14;;;;;;;3.03;2.73;;;16.50;65.80;;;;;;5080614;28;43487;-74
2023/12/09 08:31:46;;;;;;;3.20;3.00;;;16.50;65.90;;;;;;5076301;28;43621;-73
2023/12/09 08:34:14;;;;;;;3.10;2.90;;;16.50;65.90;;;;;;5071874;28;45531;-72
2023/12/09 08:36:42;;;;;;;2.90;2.70;;;16.50;66.00;;;;;;5084350;28;43412;-72
2023/12/09 08:39:11;;;;;;;4.43;3.07;;;16.50;66.00;;;;;;5075557;28;43483;-72
2023/12/09 08:41:39;;;;;;;3.33;3.00;;;16.50;66.00;;;;;;5085747;28;43463;-73
2023/12/09 08:44:08;;;;;;;3.13;2.93;;;16.50;66.00;;;;;;5084777;28;43614;-75
2023/12/09 08:46:36;;;;;;;3.10;2.90;;;16.50;66.00;;;;;;5079040;28;44247;-74
2023/12/09 08:49:04;;;;;;;3.13;2.93;;;16.50;66.00;;;;;;5077984;28;43416;-74
2023/12/09 08:51:33;;;;;;;2.90;2.70;;;16.50;66.10;;;;;;5083427;28;43427;-74
2023/12/09 08:54:01;;;;;;;2.80;2.60;;;16.50;66.10;;;;;;5083506;28;43608;-72
2023/12/09 08:56:29;;;;;;;3.03;2.80;;;16.60;66.10;;;;;;5083651;28;43406;-73
2023/12/09 08:58:57;;;;;;;3.20;3.00;;;16.70;65.90;;;;;;5083250;28;43394;-73
2023/12/09 09:01:26;;;;;;;3.77;3.07;;;16.70;65.40;;;;;;5071189;28;43579;-74
2023/12/09 09:03:54;;;;;;;3.00;2.80;;;16.70;65.40;;;;;;5079960;28;45798;-74
2023/12/09 09:06:22;;;;;;;3.07;2.87;;;16.70;65.40;;;;;;5070906;28;44715;-73
2023/12/09 09:08:51;;;;;;;2.90;2.70;;;16.70;65.70;;;;;;5071465;28;43440;-73
2023/12/09 09:11:20;;;;;;;2.77;2.57;;;16.70;65.70;;;;;;5083592;28;43336;-72
2023/12/09 09:13:48;;;;;;;2.63;2.53;;;16.70;65.60;;;;;;5073016;28;45943;-72
2023/12/09 09:16:16;;;;;;;2.40;2.30;;;16.70;65.70;;;;;;5075917;28;45127;-76
2023/12/09 09:18:45;;;;;;;2.90;2.70;;;16.60;65.80;;;;;;5081725;28;43481;-72
2023/12/09 09:21:13;;;;;;;2.70;2.50;;;16.60;65.80;;;;;;5083327;28;44030;-72
2023/12/09 09:23:42;;;;;;;3.07;2.87;;;16.60;66.00;;;;;;5078218;28;45560;-74
2023/12/09 09:26:10;;;;;;;2.87;2.77;;;16.50;66.00;;;;;;5062690;28;44714;-78
2023/12/09 09:28:38;;;;;;;2.87;2.60;;;16.60;66.10;;;;;;5068283;28;43412;-77
2023/12/09 09:31:06;;;;;;;2.77;2.50;;;16.70;65.80;;;;;;5068464;28;43430;-78
2023/12/09 09:33:34;;;;;;;2.73;2.57;;;16.60;65.60;;;;;;5067614;28;43783;-77
2023/12/09 09:36:04;;;;;;;2.40;2.30;;;16.70;65.80;;;;;;5067991;28;43398;-75
2023/12/09 09:38:32;;;;;;;2.63;2.50;;;16.60;65.80;;;;;;5056512;28;43446;-73
2023/12/09 09:41:00;;;;;;;3.00;2.70;;;16.60;65.90;;;;;;5068421;28;43412;-75
2023/12/09 09:43:31;;;;;;;2.67;2.53;;;16.60;65.90;;;;;;5067730;28;43598;-75
2023/12/09 09:46:01;;;;;;;2.37;2.27;;;16.60;65.90;;;;;;5065544;28;43471;-75
2023/12/09 09:48:29;;;;;;;2.30;2.20;;;16.60;66.00;;;;;;5068201;28;43402;-73
2023/12/09 09:50:58;;;;;;;2.50;2.40;;;16.60;66.00;;;;;;5067032;28;43466;-73
2023/12/09 09:53:32;;;;;;;2.67;2.47;;;16.50;66.00;;;;;;5067475;28;43619;-74
2023/12/09 09:56:00;;;;;;;2.10;2.00;;;16.50;66.10;;;;;;5059183;28;44390;-73
2023/12/09 09:58:28;;;;;;;2.60;2.40;;;16.50;66.20;;;;;;5059434;28;43395;-76
2023/12/09 10:00:57;;;;;;;2.67;2.50;;;16.50;66.10;;;;;;5067569;28;43535;-74
2023/12/09 10:03:25;;;;;;;2.47;2.30;;;16.50;66.10;;;;;;5066502;28;43661;-74
2023/12/09 10:05:53;;;;;;;2.20;2.10;;;16.50;66.10;;;;;;5067966;28;43417;-75
2023/12/09 10:08:21;;;;;;;2.10;2.10;;;16.50;66.20;;;;;;5067488;28;43512;-74
2023/12/09 10:10:51;;;;;;;2.40;2.30;;;16.50;66.20;;;;;;5068101;28;43566;-74
2023/12/09 10:13:19;;;;;;;2.17;2.07;;;16.50;66.30;;;;;;5067335;28;43962;-74
2023/12/09 10:15:47;;;;;;;2.63;2.50;;;16.50;66.30;;;;;;5067590;28;43473;-75
2023/12/09 10:18:16;;;;;;;2.20;2.10;;;16.60;66.30;;;;;;5067684;28;44004;-72
2023/12/09 10:20:44;;;;;;;2.43;2.33;;;16.70;66.00;;;;;;5067932;28;43312;-74
2023/12/09 10:23:15;;;;;;;2.47;2.37;;;16.70;65.60;;;;;;5067130;28;43784;-74
2023/12/09 10:25:44;;;;;;;2.10;2.00;;;16.80;65.60;;;;;;5067247;28;43385;-76
2023/12/09 10:28:13;;;;;;;2.33;2.23;;;16.70;65.50;;;;;;5067281;28;43486;-75
2023/12/09 10:30:41;;;;;;;2.40;2.20;;;16.70;65.70;;;;;;5067975;28;43352;-74
2023/12/09 10:33:10;;;;;;;2.13;2.03;;;16.70;65.70;;;;;;5047238;28;45418;-73
2023/12/09 10:35:38;;;;;;;2.30;2.20;;;16.70;65.70;;;;;;5070178;28;43366;-75
2023/12/09 10:38:06;;;;;;;2.70;2.60;;;16.60;65.70;;;;;;5079626;28;43381;-73
2023/12/09 10:40:34;;;;;;;2.30;2.20;;;16.60;65.90;;;;;;5067571;28;43460;-73
2023/12/09 10:43:03;;;;;;;2.00;1.90;;;16.60;66.00;;;;;;5076761;28;45274;-74
2023/12/09 10:45:33;;;;;;;2.20;2.10;;;16.60;66.10;;;;;;5065655;28;43443;-76
2023/12/09 10:48:01;;;;;;;2.10;2.00;;;16.60;66.10;;;;;;5067347;28;43618;-73
2023/12/09 10:50:30;;;;;;;1.70;1.70;;;16.60;66.10;;;;;;5059872;28;43511;-75
2023/12/09 10:52:58;;;;;;;2.33;2.23;;;16.60;66.80;;;;;;5066949;28;43743;-75
2023/12/09 10:55:26;;;;;;;2.10;1.93;;;16.60;66.20;;;;;;5066824;28;43509;-75
2023/12/09 10:57:55;;;;;;;2.13;2.03;;;16.50;66.10;;;;;;5067109;28;43435;-74
2023/12/09 11:00:24;;;;;;;1.87;1.70;;;16.50;66.20;;;;;;5062907;28;43456;-74
2023/12/09 11:02:54;;;;;;;2.17;2.07;;;16.50;66.30;;;;;;5070337;28;43869;-75
2023/12/09 11:05:22;;;;;;;2.67;2.47;;;16.50;66.20;;;;;;5062977;28;44381;-74
2023/12/09 11:07:50;;;;;;;1.93;1.90;;;16.50;66.20;;;;;;5070429;28;43436;-74
2023/12/09 11:10:18;;;;;;;2.50;2.20;;;16.50;66.20;;;;;;5059954;28;43410;-75
2023/12/09 11:12:48;;;;;;;1.93;1.83;;;16.50;66.20;;;;;;5056436;28;46001;-74
2023/12/09 11:15:22;;;;;;;2.30;2.20;;;16.50;66.20;;;;;;5065592;28;44866;-74
2023/12/09 11:17:51;;;;;;;2.13;2.03;;;16.50;66.30;;;;;;5070166;28;43473;-74
2023/12/09 11:20:24;;;;;;;2.10;2.00;;;16.50;66.40;;;;;;5062605;28;43530;-74
2023/12/09 11:22:53;;;;;;;1.90;1.90;;;16.50;66.20;;;;;;5070023;28;43616;-74
2023/12/09 11:25:22;;;;;;;2.17;2.07;;;16.60;66.00;;;;;;5070003;28;43921;-75
2023/12/09 11:27:50;;;;;;;1.80;1.80;;;16.80;65.80;;;;;;5070202;28;43508;-75
2023/12/09 11:30:34;;;;;;;2.10;2.00;;;16.80;65.50;;;;;;5070209;28;43901;-78
2023/12/09 11:33:04;;;;;;;1.90;1.80;;;16.80;65.60;;;;;;5067153;28;43695;-77
2023/12/09 11:35:35;;;;;;;1.90;1.80;;;16.70;65.60;;;;;;5069713;28;43410;-75
2023/12/09 11:38:04;;;;;;;2.00;1.90;;;16.70;65.80;;;;;;5070147;28;43441;-74
2023/12/09 11:40:32;;;;;;;1.93;1.83;;;16.70;65.80;;;;;;5063528;28;43584;-73
2023/12/09 11:43:02;;;;;;;1.93;1.83;;;16.70;65.80;;;;;;5069333;28;43615;-75
2023/12/09 11:45:30;;;;;;;1.93;1.93;;;16.70;65.90;;;;;;5073202;28;43530;-72
2023/12/09 11:47:58;;;;;;;1.90;1.80;;;16.60;65.90;;;;;;5077402;28;43406;-74
2023/12/09 11:50:28;;;;;;;1.93;1.83;;;16.60;66.70;;;;;;5082454;28;43530;-74
2023/12/09 11:52:58;;;;;;;2.10;2.00;;;16.60;66.10;;;;;;5081914;28;43849;-74
2023/12/09 11:55:26;;;;;;;2.13;2.07;;;16.60;66.10;;;;;;5072803;28;43415;-74
2023/12/09 11:57:54;;;;;;;2.10;2.00;;;16.60;66.10;;;;;;5069210;28;43418;-75
2023/12/09 12:00:22;;;;;;;1.90;1.80;;;16.60;66.20;;;;;;5057187;28;43428;-73
2023/12/09 12:02:50;;;;;;;2.00;1.90;;;16.60;66.90;;;;;;5064126;28;45884;-74
2023/12/09 12:05:19;;;;;;;1.80;1.80;;;16.60;66.20;;;;;;5069516;28;43461;-74
2023/12/09 12:07:48;;;;;;;1.80;1.70;;;16.60;66.30;;;;;;5069390;28;43343;-75
2023/12/09 12:10:17;;;;;;;1.80;1.80;;;16.50;66.20;;;;;;5068759;28;43419;-74
2023/12/09 12:12:45;;;;;;;1.70;1.70;;;16.50;66.20;;;;;;5068249;28;43753;-73
2023/12/09 12:15:13;;;;;;;1.53;1.53;;;16.60;66.30;;;;;;5063115;28;44406;-74
2023/12/09 12:17:42;;;;;;;1.70;1.70;;;16.60;66.30;;;;;;5066379;28;43301;-74
2023/12/09 12:20:11;;;;;;;1.50;1.40;;;16.60;66.40;;;;;;5069316;28;44119;-74
2023/12/09 12:22:40;;;;;;;1.93;1.87;;;16.60;66.40;;;;;;5068960;28;44163;-75
2023/12/09 12:25:09;;;;;;;1.87;1.80;;;16.50;67.10;;;;;;5065921;28;44027;-74
2023/12/09 12:27:43;;;;;;;1.73;1.73;;;16.60;66.40;;;;;;5069260;28;43516;-74
2023/12/09 12:30:13;;;;;;;1.70;1.70;;;16.60;66.20;;;;;;5060278;28;43512;-75
2023/12/09 12:32:42;;;;;;;1.73;1.73;;;16.80;65.90;;;;;;5063330;28;44689;-74
2023/12/09 12:35:11;;;;;;;1.70;1.70;;;16.80;65.60;;;;;;5059390;28;44329;-74
2023/12/09 12:37:41;;;;;;;1.90;1.80;;;16.80;65.40;;;;;;5061011;28;43475;-74
2023/12/09 12:40:11;;;;;;;1.50;1.50;;;16.80;65.50;;;;;;5069960;28;43489;-76
2023/12/09 12:42:40;;;;;;;1.87;1.87;;;16.70;65.70;;;;;;5068733;28;43909;-73
2023/12/09 12:45:17;;;;;;;1.87;1.87;;;16.70;65.60;;;;;;5063176;28;45236;-74
2023/12/09 12:47:46;;;;;;;1.93;1.90;;;16.80;65.80;;;;;;5068604;28;43376;-74
2023/12/09 12:50:14;;;;;;;1.60;1.60;;;16.70;65.80;;;;;;5064873;28;43785;-75
2023/12/09 12:52:42;;;;;;;1.80;1.70;;;16.70;65.90;;;;;;5067681;28;43925;-73
2023/12/09 12:55:12;;;;;;;1.57;1.57;;;16.70;66.10;;;;;;5069242;28;43417;-75